createdAt,value
2023-04-20T00:00:51.152Z,94913.00
2023-04-20T00:01:51.201Z,94915.00
2023-04-20T00:02:51.387Z,94909.00
2023-04-20T00:03:51.542Z,94903.00
2023-04-20T00:04:51.288Z,94903.00
2023-04-20T00:05:51.355Z,94899.00
2023-04-20T00:06:51.357Z,94895.00
2023-04-20T00:07:51.397Z,94897.00
2023-04-20T00:08:51.437Z,94895.00
2023-04-20T00:09:51.471Z,94895.00
2023-04-20T00:10:51.536Z,94887.00
2023-04-20T00:11:51.548Z,94885.00
2023-04-20T00:12:51.587Z,94885.00
2023-04-20T00:13:51.613Z,94885.00
2023-04-20T00:14:51.676Z,94883.00
2023-04-20T00:15:51.710Z,94883.00
2023-04-20T00:16:51.772Z,94883.00
2023-04-20T00:17:52.203Z,94881.00
2023-04-20T00:18:52.190Z,94880.00
2023-04-20T00:19:52.210Z,94881.00
2023-04-20T00:20:52.202Z,94880.00
2023-04-20T00:21:52.202Z,94876.00
2023-04-20T00:22:52.185Z,94874.00
2023-04-20T00:23:52.217Z,94874.00
2023-04-20T00:24:52.204Z,94868.00
2023-04-20T00:25:52.211Z,94872.00
2023-04-20T00:26:52.216Z,94870.00
2023-04-20T00:27:52.218Z,94868.00
2023-04-20T00:28:52.220Z,94868.00
2023-04-20T00:29:52.252Z,94866.00
2023-04-20T00:30:52.315Z,94866.00
2023-04-20T00:31:52.347Z,94864.00
2023-04-20T00:32:52.410Z,94866.00
2023-04-20T00:33:52.431Z,94864.00
2023-04-20T00:34:52.482Z,94862.00
2023-04-20T00:35:52.512Z,94864.00
2023-04-20T00:36:52.557Z,94864.00
2023-04-20T00:37:52.600Z,94862.00
2023-04-20T00:38:52.643Z,94862.00
2023-04-20T00:39:52.697Z,94858.00
2023-04-20T00:40:53.147Z,94858.00
2023-04-20T00:41:53.123Z,94854.00
2023-04-20T00:42:53.149Z,94854.00
2023-04-20T00:43:53.126Z,94856.00
2023-04-20T00:44:53.118Z,94856.00
2023-04-20T00:45:53.158Z,94854.00
2023-04-20T00:46:53.119Z,94850.00
2023-04-20T00:47:53.660Z,94848.00
2023-04-20T00:48:53.132Z,94846.00
2023-04-20T00:49:53.140Z,94846.00
2023-04-20T00:50:53.173Z,94844.00
2023-04-20T00:51:53.233Z,94844.00
2023-04-20T00:52:53.273Z,94844.00
2023-04-20T00:53:53.338Z,94840.00
2023-04-20T00:54:53.374Z,94840.00
2023-04-20T00:55:53.413Z,94836.00
2023-04-20T00:56:53.444Z,94834.00
2023-04-20T00:57:53.494Z,94831.00
2023-04-20T00:58:53.677Z,94831.00
2023-04-20T00:59:53.600Z,94829.00
2023-04-20T01:00:53.625Z,94829.00
2023-04-20T01:01:53.735Z,94827.00
2023-04-20T01:02:54.768Z,94825.00
2023-04-20T01:03:53.894Z,94821.00
2023-04-20T01:04:53.797Z,94823.00
2023-04-20T01:05:53.878Z,94823.00
2023-04-20T01:06:53.894Z,94821.00
2023-04-20T01:07:53.942Z,94819.00
2023-04-20T01:08:54.002Z,94821.00
2023-04-20T01:09:54.038Z,94821.00
2023-04-20T01:10:54.613Z,94819.00
2023-04-20T01:11:54.126Z,94817.00
2023-04-20T01:12:55.113Z,94819.00
2023-04-20T01:13:54.202Z,94817.00
2023-04-20T01:14:54.299Z,94817.00
2023-04-20T01:15:54.306Z,94813.00
2023-04-20T01:16:54.323Z,94813.00
2023-04-20T01:17:54.433Z,94813.00
2023-04-20T01:18:54.422Z,94813.00
2023-04-20T01:19:54.472Z,94807.00
2023-04-20T01:20:54.522Z,94809.00
2023-04-20T01:21:54.577Z,94805.00
2023-04-20T01:22:54.611Z,94805.00
2023-04-20T01:23:54.667Z,94799.00
2023-04-20T01:24:54.711Z,94799.00
2023-04-20T01:25:54.758Z,94799.00
2023-04-20T01:26:55.617Z,94797.00
2023-04-20T01:27:55.618Z,94795.00
2023-04-20T01:28:54.915Z,94795.00
2023-04-20T01:29:54.958Z,94797.00
2023-04-20T01:30:55.027Z,94795.00
2023-04-20T01:31:55.166Z,94795.00
2023-04-20T01:32:55.198Z,94795.00
2023-04-20T01:33:55.175Z,94799.00
2023-04-20T01:34:55.215Z,94797.00
2023-04-20T01:35:55.276Z,94797.00
2023-04-20T01:36:55.307Z,94797.00
2023-04-20T01:37:55.356Z,94795.00
2023-04-20T01:38:55.412Z,94795.00
2023-04-20T01:39:55.551Z,94797.00
2023-04-20T01:40:55.540Z,94793.00
2023-04-20T01:41:55.599Z,94791.00
2023-04-20T01:42:55.637Z,94791.00
2023-04-20T01:43:55.687Z,94785.00
2023-04-20T01:44:55.746Z,94787.00
2023-04-20T01:45:55.795Z,94783.00
2023-04-20T01:46:55.986Z,94783.00
2023-04-20T01:47:55.937Z,94783.00
2023-04-20T01:48:55.959Z,94783.00
2023-04-20T01:49:56.031Z,94783.00
2023-04-20T01:50:56.076Z,94783.00
2023-04-20T01:51:56.130Z,94781.00
2023-04-20T01:52:56.190Z,94781.00
2023-04-20T01:53:56.243Z,94779.00
2023-04-20T01:54:56.308Z,94779.00
2023-04-20T01:55:56.351Z,94781.00
2023-04-20T01:56:56.408Z,94779.00
2023-04-20T01:57:56.464Z,94778.00
2023-04-20T01:58:56.522Z,94781.00
2023-04-20T01:59:56.564Z,94778.00
2023-04-20T02:00:56.616Z,94778.00
2023-04-20T02:01:56.680Z,94776.00
2023-04-20T02:02:56.856Z,94774.00
2023-04-20T02:03:56.956Z,94770.00
2023-04-20T02:04:56.777Z,94770.00
2023-04-20T02:05:56.827Z,94768.00
2023-04-20T02:06:56.862Z,94768.00
2023-04-20T02:07:56.908Z,94766.00
2023-04-20T02:08:56.956Z,94768.00
2023-04-20T02:09:57.015Z,94770.00
2023-04-20T02:10:57.048Z,94766.00
2023-04-20T02:11:57.118Z,94766.00
2023-04-20T02:12:57.136Z,94764.00
2023-04-20T02:13:57.180Z,94766.00
2023-04-20T02:14:57.222Z,94764.00
2023-04-20T02:15:57.271Z,94764.00
2023-04-20T02:16:57.380Z,94764.00
2023-04-20T02:17:57.438Z,94768.00
2023-04-20T02:18:57.581Z,94768.00
2023-04-20T02:19:57.449Z,94768.00
2023-04-20T02:20:57.497Z,94766.00
2023-04-20T02:21:57.539Z,94766.00
2023-04-20T02:22:57.593Z,94764.00
2023-04-20T02:23:58.011Z,94766.00
2023-04-20T02:24:58.018Z,94766.00
2023-04-20T02:25:58.035Z,94766.00
2023-04-20T02:26:58.005Z,94768.00
2023-04-20T02:27:58.025Z,94766.00
2023-04-20T02:28:58.013Z,94768.00
2023-04-20T02:29:58.005Z,94770.00
2023-04-20T02:30:58.056Z,94772.00
2023-04-20T02:31:58.008Z,94774.00
2023-04-20T02:32:58.137Z,94774.00
2023-04-20T02:33:58.082Z,94774.00
2023-04-20T02:34:58.145Z,94774.00
2023-04-20T02:35:58.166Z,94774.00
2023-04-20T02:36:58.213Z,94774.00
2023-04-20T02:37:58.251Z,94772.00
2023-04-20T02:38:58.295Z,94766.00
2023-04-20T02:39:58.336Z,94764.00
2023-04-20T02:40:58.384Z,94760.00
2023-04-20T02:41:58.430Z,94754.00
2023-04-20T02:42:58.477Z,94750.00
2023-04-20T02:43:58.524Z,94750.00
2023-04-20T02:44:58.562Z,94750.00
2023-04-20T02:45:58.706Z,94750.00
2023-04-20T02:46:58.658Z,94748.00
2023-04-20T02:47:58.782Z,94746.00
2023-04-20T02:48:58.757Z,94742.00
2023-04-20T02:49:59.180Z,94744.00
2023-04-20T02:50:59.208Z,94744.00
2023-04-20T02:51:59.198Z,94742.00
2023-04-20T02:52:59.188Z,94742.00
2023-04-20T02:53:59.192Z,94742.00
2023-04-20T02:54:59.184Z,94742.00
2023-04-20T02:55:59.184Z,94740.00
2023-04-20T02:56:59.247Z,94740.00
2023-04-20T02:57:59.191Z,94742.00
2023-04-20T02:58:59.200Z,94740.00
2023-04-20T02:59:59.233Z,94738.00
2023-04-20T03:00:59.274Z,94738.00
2023-04-20T03:01:59.399Z,94736.00
2023-04-20T03:02:59.511Z,94732.00
2023-04-20T03:03:59.580Z,94731.00
2023-04-20T03:04:59.453Z,94732.00
2023-04-20T03:05:59.493Z,94729.00
2023-04-20T03:06:59.569Z,94727.00
2023-04-20T03:07:59.588Z,94727.00
2023-04-20T03:08:59.632Z,94727.00
2023-04-20T03:09:59.689Z,94727.00
2023-04-20T03:10:59.709Z,94725.00
2023-04-20T03:11:59.756Z,94727.00
2023-04-20T03:12:59.810Z,94723.00
2023-04-20T03:13:59.848Z,94729.00
2023-04-20T03:14:59.889Z,94723.00
2023-04-20T03:15:59.972Z,94723.00
2023-04-20T03:16:59.974Z,94723.00
2023-04-20T03:18:00.074Z,94723.00
2023-04-20T03:19:00.101Z,94719.00
2023-04-20T03:20:00.158Z,94719.00
2023-04-20T03:21:00.172Z,94719.00
2023-04-20T03:22:00.229Z,94719.00
2023-04-20T03:23:00.291Z,94715.00
2023-04-20T03:24:00.337Z,94713.00
2023-04-20T03:25:00.389Z,94713.00
2023-04-20T03:26:00.396Z,94713.00
2023-04-20T03:27:00.450Z,94711.00
2023-04-20T03:28:00.521Z,94713.00
2023-04-20T03:29:00.540Z,94709.00
2023-04-20T03:30:00.600Z,94711.00
2023-04-20T03:31:00.644Z,94709.00
2023-04-20T03:32:00.710Z,94707.00
2023-04-20T03:33:00.832Z,94707.00
2023-04-20T03:34:00.772Z,94709.00
2023-04-20T03:35:01.165Z,94709.00
2023-04-20T03:36:00.852Z,94709.00
2023-04-20T03:37:00.896Z,94705.00
2023-04-20T03:38:00.950Z,94703.00
2023-04-20T03:39:01.026Z,94703.00
2023-04-20T03:40:01.050Z,94705.00
2023-04-20T03:41:01.088Z,94707.00
2023-04-20T03:42:01.135Z,94709.00
2023-04-20T03:43:01.190Z,94709.00
2023-04-20T03:44:01.264Z,94707.00
2023-04-20T03:45:01.297Z,94703.00
2023-04-20T03:46:01.399Z,94701.00
2023-04-20T03:47:01.390Z,94699.00
2023-04-20T03:48:01.530Z,94699.00
2023-04-20T03:49:01.491Z,94697.00
2023-04-20T03:50:01.549Z,94695.00
2023-04-20T03:51:01.593Z,94699.00
2023-04-20T03:52:01.660Z,94697.00
2023-04-20T03:53:01.697Z,94697.00
2023-04-20T03:54:01.725Z,94695.00
2023-04-20T03:55:01.849Z,94693.00
2023-04-20T03:56:01.837Z,94693.00
2023-04-20T03:57:01.885Z,94693.00
2023-04-20T03:58:01.941Z,94695.00
2023-04-20T03:59:02.203Z,94695.00
2023-04-20T04:00:02.042Z,94695.00
2023-04-20T04:01:02.083Z,94693.00
2023-04-20T04:02:02.786Z,94693.00
2023-04-20T04:03:02.387Z,94693.00
2023-04-20T04:04:02.414Z,94693.00
2023-04-20T04:05:02.408Z,94695.00
2023-04-20T04:06:02.320Z,94695.00
2023-04-20T04:07:02.364Z,94695.00
2023-04-20T04:08:02.447Z,94697.00
2023-04-20T04:09:02.468Z,94697.00
2023-04-20T04:10:02.519Z,94699.00
2023-04-20T04:11:02.590Z,94697.00
2023-04-20T04:12:02.620Z,94699.00
2023-04-20T04:13:02.662Z,94697.00
2023-04-20T04:14:02.709Z,94695.00
2023-04-20T04:15:02.775Z,94697.00
2023-04-20T04:16:02.815Z,94699.00
2023-04-20T04:17:02.870Z,94695.00
2023-04-20T04:18:04.151Z,94697.00
2023-04-20T04:19:02.938Z,94699.00
2023-04-20T04:20:02.994Z,94699.00
2023-04-20T04:21:03.040Z,94697.00
2023-04-20T04:22:03.087Z,94699.00
2023-04-20T04:23:03.133Z,94699.00
2023-04-20T04:24:03.172Z,94697.00
2023-04-20T04:25:03.232Z,94697.00
2023-04-20T04:26:03.274Z,94697.00
2023-04-20T04:27:03.340Z,94697.00
2023-04-20T04:28:03.366Z,94699.00
2023-04-20T04:29:03.426Z,94697.00
2023-04-20T04:30:03.471Z,94695.00
2023-04-20T04:31:06.317Z,94697.00
2023-04-20T04:32:03.521Z,94695.00
2023-04-20T04:33:03.499Z,94693.00
2023-04-20T04:34:03.496Z,94693.00
2023-04-20T04:35:03.493Z,94691.00
2023-04-20T04:36:03.511Z,94691.00
2023-04-20T04:37:03.473Z,94689.00
2023-04-20T04:38:03.467Z,94687.00
2023-04-20T04:39:03.459Z,94685.00
2023-04-20T04:40:04.485Z,94684.00
2023-04-20T04:41:03.443Z,94684.00
2023-04-20T04:42:04.860Z,94685.00
2023-04-20T04:43:03.652Z,94684.00
2023-04-20T04:44:03.681Z,94685.00
2023-04-20T04:45:04.101Z,94682.00
2023-04-20T04:46:04.128Z,94684.00
2023-04-20T04:47:04.085Z,94685.00
2023-04-20T04:48:05.061Z,94687.00
2023-04-20T04:49:04.096Z,94684.00
2023-04-20T04:50:04.089Z,94685.00
2023-04-20T04:51:04.694Z,94684.00
2023-04-20T04:52:04.088Z,94680.00
2023-04-20T04:53:04.090Z,94682.00
2023-04-20T04:54:04.108Z,94680.00
2023-04-20T04:55:04.092Z,94680.00
2023-04-20T04:56:04.699Z,94680.00
2023-04-20T04:57:04.098Z,94678.00
2023-04-20T04:58:06.738Z,94676.00
2023-04-20T04:59:04.100Z,94680.00
2023-04-20T05:00:04.101Z,94678.00
2023-04-20T05:01:06.705Z,94676.00
2023-04-20T05:02:04.224Z,94674.00
2023-04-20T05:03:04.359Z,94676.00
2023-04-20T05:04:04.325Z,94674.00
2023-04-20T05:05:04.792Z,94672.00
2023-04-20T05:06:04.125Z,94670.00
2023-04-20T05:07:04.105Z,94670.00
2023-04-20T05:08:04.095Z,94672.00
2023-04-20T05:09:04.104Z,94668.00
2023-04-20T05:10:04.100Z,94668.00
2023-04-20T05:11:04.097Z,94668.00
2023-04-20T05:12:04.096Z,94670.00
2023-04-20T05:13:03.958Z,94672.00
2023-04-20T05:14:04.357Z,94674.00
2023-04-20T05:15:04.042Z,94674.00
2023-04-20T05:16:04.081Z,94676.00
2023-04-20T05:17:04.121Z,94678.00
2023-04-20T05:18:04.238Z,94680.00
2023-04-20T05:19:04.180Z,94678.00
2023-04-20T05:20:05.213Z,94680.00
2023-04-20T05:21:04.262Z,94680.00
2023-04-20T05:22:04.324Z,94678.00
2023-04-20T05:23:04.333Z,94680.00
2023-04-20T05:24:04.713Z,94680.00
2023-04-20T05:25:04.413Z,94680.00
2023-04-20T05:26:04.454Z,94680.00
2023-04-20T05:27:04.513Z,94684.00
2023-04-20T05:28:04.534Z,94682.00
2023-04-20T05:29:04.571Z,94682.00
2023-04-20T05:30:17.045Z,94682.00
2023-04-20T05:31:04.612Z,94682.00
2023-04-20T05:32:04.628Z,94680.00
2023-04-20T05:33:04.634Z,94682.00
2023-04-20T05:34:04.587Z,94684.00
2023-04-20T05:35:04.658Z,94685.00
2023-04-20T05:36:04.566Z,94685.00
2023-04-20T05:37:04.568Z,94684.00
2023-04-20T05:38:04.579Z,94684.00
2023-04-20T05:39:04.724Z,94682.00
2023-04-20T05:40:04.555Z,94680.00
2023-04-20T05:41:06.215Z,94680.00
2023-04-20T05:42:04.763Z,94684.00
2023-04-20T05:43:05.279Z,94685.00
2023-04-20T05:44:04.849Z,94685.00
2023-04-20T05:45:04.915Z,94685.00
2023-04-20T05:46:05.266Z,94687.00
2023-04-20T05:47:05.213Z,94685.00
2023-04-20T05:48:05.090Z,94682.00
2023-04-20T05:49:05.221Z,94684.00
2023-04-20T05:50:05.098Z,94682.00
2023-04-20T05:51:05.184Z,94682.00
2023-04-20T05:52:05.306Z,94680.00
2023-04-20T05:53:05.245Z,94676.00
2023-04-20T05:54:06.079Z,94676.00
2023-04-20T05:55:05.352Z,94676.00
2023-04-20T05:56:06.284Z,94676.00
2023-04-20T05:57:05.436Z,94678.00
2023-04-20T05:58:05.445Z,94678.00
2023-04-20T05:59:06.768Z,94678.00
2023-04-20T06:00:06.623Z,94680.00
2023-04-20T06:01:05.648Z,94678.00
2023-04-20T06:02:10.005Z,94682.00
2023-04-20T06:03:06.295Z,94682.00
2023-04-20T06:04:06.462Z,94676.00
2023-04-20T06:05:06.187Z,94678.00
2023-04-20T06:06:06.169Z,94674.00
2023-04-20T06:07:06.193Z,94672.00
2023-04-20T06:08:07.308Z,94674.00
2023-04-20T06:09:06.173Z,94674.00
2023-04-20T06:10:06.220Z,94672.00
2023-04-20T06:11:06.191Z,94670.00
2023-04-20T06:12:07.187Z,94672.00
2023-04-20T06:13:07.093Z,94670.00
2023-04-20T06:14:07.139Z,94670.00
2023-04-20T06:15:06.789Z,94670.00
2023-04-20T06:16:06.211Z,94668.00
2023-04-20T06:17:13.611Z,94666.00
2023-04-20T06:18:06.810Z,94668.00
2023-04-20T06:19:07.278Z,94672.00
2023-04-20T06:20:06.183Z,94670.00
2023-04-20T06:21:06.739Z,94668.00
2023-04-20T06:22:06.178Z,94668.00
2023-04-20T06:23:06.767Z,94668.00
2023-04-20T06:24:06.269Z,94668.00
2023-04-20T06:25:06.762Z,94670.00
2023-04-20T06:26:06.187Z,94670.00
2023-04-20T06:27:06.187Z,94670.00
2023-04-20T06:28:06.268Z,94668.00
2023-04-20T06:29:06.221Z,94666.00
2023-04-20T06:30:06.773Z,94666.00
2023-04-20T06:31:06.333Z,94664.00
2023-04-20T06:32:07.763Z,94662.00
2023-04-20T06:33:08.057Z,94662.00
2023-04-20T06:34:06.774Z,94660.00
2023-04-20T06:35:06.328Z,94662.00
2023-04-20T06:36:06.359Z,94660.00
2023-04-20T06:37:06.793Z,94662.00
2023-04-20T06:38:06.370Z,94664.00
2023-04-20T06:39:06.350Z,94664.00
2023-04-20T06:40:06.324Z,94664.00
2023-04-20T06:41:07.314Z,94664.00
2023-04-20T06:42:06.765Z,94664.00
2023-04-20T06:43:06.768Z,94660.00
2023-04-20T06:44:06.768Z,94658.00
2023-04-20T06:45:06.798Z,94656.00
2023-04-20T06:46:06.286Z,94654.00
2023-04-20T06:47:06.403Z,94654.00
2023-04-20T06:48:30.976Z,94652.00
2023-04-20T06:49:06.588Z,94650.00
2023-04-20T06:50:06.259Z,94650.00
2023-04-20T06:51:06.262Z,94648.00
2023-04-20T06:52:21.854Z,94648.00
2023-04-20T06:53:06.269Z,94646.00
2023-04-20T06:54:06.217Z,94644.00
2023-04-20T06:55:06.770Z,94646.00
2023-04-20T06:56:13.594Z,94644.00
2023-04-20T06:57:06.766Z,94644.00
2023-04-20T06:58:07.182Z,94646.00
2023-04-20T06:59:06.194Z,94646.00
2023-04-20T07:00:06.215Z,94646.00
2023-04-20T07:01:06.176Z,94646.00
2023-04-20T07:02:06.374Z,94646.00
2023-04-20T07:03:06.255Z,94648.00
2023-04-20T07:04:06.245Z,94644.00
2023-04-20T07:05:06.162Z,94640.00
2023-04-20T07:06:06.178Z,94627.00
2023-04-20T07:07:06.432Z,94627.00
2023-04-20T07:08:06.174Z,94625.00
2023-04-20T07:09:06.250Z,94627.00
2023-04-20T07:10:06.788Z,94621.00
2023-04-20T07:11:06.279Z,94627.00
2023-04-20T07:12:06.781Z,94631.00
2023-04-20T07:13:06.221Z,94629.00
2023-04-20T07:14:06.277Z,94627.00
2023-04-20T07:15:06.265Z,94627.00
2023-04-20T07:16:06.421Z,94627.00
2023-04-20T07:17:06.767Z,94627.00
2023-04-20T07:18:06.487Z,94629.00
2023-04-20T07:19:06.774Z,94629.00
2023-04-20T07:20:06.791Z,94629.00
2023-04-20T07:21:06.466Z,94631.00
2023-04-20T07:22:06.497Z,94629.00
2023-04-20T07:23:06.532Z,94627.00
2023-04-20T07:24:06.789Z,94629.00
2023-04-20T07:25:06.623Z,94629.00
2023-04-20T07:26:07.283Z,94627.00
2023-04-20T07:27:08.273Z,94627.00
2023-04-20T07:28:06.840Z,94629.00
2023-04-20T07:29:06.889Z,94629.00
2023-04-20T07:30:07.905Z,94638.00
2023-04-20T07:31:06.935Z,94638.00
2023-04-20T07:32:07.317Z,94638.00
2023-04-20T07:33:07.024Z,94640.00
2023-04-20T07:34:07.293Z,94631.00
2023-04-20T07:35:07.062Z,94629.00
2023-04-20T07:36:07.476Z,94627.00
2023-04-20T07:37:07.090Z,94629.00
2023-04-20T07:38:07.140Z,94640.00
2023-04-20T07:39:07.260Z,94640.00
2023-04-20T07:40:07.407Z,94640.00
2023-04-20T07:41:07.202Z,94640.00
2023-04-20T07:42:07.227Z,94638.00
2023-04-20T07:43:07.280Z,94638.00
2023-04-20T07:44:07.273Z,94640.00
2023-04-20T07:45:07.321Z,94631.00
2023-04-20T07:46:07.362Z,94627.00
2023-04-20T07:47:07.371Z,94623.00
2023-04-20T07:48:07.850Z,94621.00
2023-04-20T07:49:07.408Z,94625.00
2023-04-20T07:50:07.441Z,94625.00
2023-04-20T07:51:07.472Z,94625.00
2023-04-20T07:52:16.253Z,94627.00
2023-04-20T07:53:07.812Z,94625.00
2023-04-20T07:54:07.794Z,94625.00
2023-04-20T07:55:10.658Z,94621.00
2023-04-20T07:56:07.494Z,94617.00
2023-04-20T07:57:07.439Z,94617.00
2023-04-20T07:58:07.438Z,94619.00
2023-04-20T07:59:08.263Z,94617.00
2023-04-20T08:00:07.669Z,94621.00
2023-04-20T08:01:08.304Z,94619.00
2023-04-20T08:02:08.386Z,94617.00
2023-04-20T08:03:07.865Z,94617.00
2023-04-20T08:04:08.021Z,94613.00
2023-04-20T08:05:08.403Z,94617.00
2023-04-20T08:06:07.819Z,94617.00
2023-04-20T08:07:07.760Z,94617.00
2023-04-20T08:08:09.322Z,94615.00
2023-04-20T08:09:08.769Z,94617.00
2023-04-20T08:10:07.910Z,94615.00
2023-04-20T08:11:08.306Z,94617.00
2023-04-20T08:12:07.941Z,94615.00
2023-04-20T08:13:08.154Z,94615.00
2023-04-20T08:14:09.321Z,94615.00
2023-04-20T08:15:07.998Z,94615.00
2023-04-20T08:16:08.835Z,94613.00
2023-04-20T08:17:08.006Z,94613.00
2023-04-20T08:18:08.059Z,94613.00
2023-04-20T08:19:08.285Z,94613.00
2023-04-20T08:20:09.045Z,94615.00
2023-04-20T08:21:08.052Z,94615.00
2023-04-20T08:22:08.064Z,94615.00
2023-04-20T08:23:08.078Z,94613.00
2023-04-20T08:24:08.363Z,94613.00
2023-04-20T08:25:08.124Z,94611.00
2023-04-20T08:26:08.221Z,94611.00
2023-04-20T08:27:08.122Z,94613.00
2023-04-20T08:28:12.020Z,94613.00
2023-04-20T08:29:08.779Z,94613.00
2023-04-20T08:30:08.129Z,94611.00
2023-04-20T08:31:08.165Z,94609.00
2023-04-20T08:32:08.113Z,94609.00
2023-04-20T08:33:08.179Z,94607.00
2023-04-20T08:34:08.286Z,94605.00
2023-04-20T08:35:08.089Z,94611.00
2023-04-20T08:36:08.082Z,94605.00
2023-04-20T08:37:08.079Z,94607.00
2023-04-20T08:38:08.080Z,94609.00
2023-04-20T08:39:08.292Z,94605.00
2023-04-20T08:40:08.093Z,94605.00
2023-04-20T08:41:08.057Z,94603.00
2023-04-20T08:42:08.068Z,94601.00
2023-04-20T08:43:08.282Z,94603.00
2023-04-20T08:44:08.293Z,94601.00
2023-04-20T08:45:08.034Z,94601.00
2023-04-20T08:46:08.049Z,94603.00
2023-04-20T08:47:08.133Z,94605.00
2023-04-20T08:48:08.316Z,94603.00
2023-04-20T08:49:08.017Z,94603.00
2023-04-20T08:50:07.997Z,94599.00
2023-04-20T08:51:08.002Z,94595.00
2023-04-20T08:52:07.972Z,94597.00
2023-04-20T08:53:08.284Z,94591.00
2023-04-20T08:54:08.283Z,94593.00
2023-04-20T08:55:07.957Z,94593.00
2023-04-20T08:56:08.104Z,94593.00
2023-04-20T08:57:07.939Z,94597.00
2023-04-20T08:58:07.931Z,94597.00
2023-04-20T08:59:08.288Z,94595.00
2023-04-20T09:00:08.288Z,94597.00
2023-04-20T09:01:07.932Z,94595.00
2023-04-20T09:02:07.992Z,94593.00
2023-04-20T09:03:08.178Z,94593.00
2023-04-20T09:04:08.126Z,94593.00
2023-04-20T09:05:08.331Z,94593.00
2023-04-20T09:06:07.895Z,94591.00
2023-04-20T09:07:07.874Z,94595.00
2023-04-20T09:08:07.892Z,94595.00
2023-04-20T09:09:07.861Z,94597.00
2023-04-20T09:10:08.289Z,94599.00
2023-04-20T09:11:07.888Z,94599.00
2023-04-20T09:12:08.184Z,94599.00
2023-04-20T09:13:07.822Z,94601.00
2023-04-20T09:14:08.284Z,94603.00
2023-04-20T09:15:08.295Z,94605.00
2023-04-20T09:16:07.831Z,94603.00
2023-04-20T09:17:07.800Z,94603.00
2023-04-20T09:18:07.811Z,94603.00
2023-04-20T09:19:08.981Z,94599.00
2023-04-20T09:20:08.301Z,94597.00
2023-04-20T09:21:08.018Z,94595.00
2023-04-20T09:22:08.289Z,94593.00
2023-04-20T09:23:08.027Z,94589.00
2023-04-20T09:24:08.291Z,94587.00
2023-04-20T09:25:08.043Z,94589.00
2023-04-20T09:26:08.047Z,94587.00
2023-04-20T09:27:08.049Z,94585.00
2023-04-20T09:28:08.097Z,94584.00
2023-04-20T09:29:08.296Z,94584.00
2023-04-20T09:30:08.082Z,94578.00
2023-04-20T09:31:08.072Z,94578.00
2023-04-20T09:32:08.123Z,94578.00
2023-04-20T09:33:08.175Z,94576.00
2023-04-20T09:34:08.304Z,94576.00
2023-04-20T09:35:08.168Z,94578.00
2023-04-20T09:36:08.185Z,94578.00
2023-04-20T09:37:08.186Z,94582.00
2023-04-20T09:38:08.299Z,94582.00
2023-04-20T09:39:08.308Z,94582.00
2023-04-20T09:40:08.294Z,94578.00
2023-04-20T09:41:10.805Z,94580.00
2023-04-20T09:42:10.803Z,94578.00
2023-04-20T09:43:10.824Z,94572.00
2023-04-20T09:44:08.310Z,94570.00
2023-04-20T09:45:08.229Z,94572.00
2023-04-20T09:46:14.818Z,94572.00
2023-04-20T09:47:08.840Z,94566.00
2023-04-20T09:48:08.820Z,94568.00
2023-04-20T09:49:08.807Z,94566.00
2023-04-20T09:50:22.949Z,94566.00
2023-04-20T09:51:08.174Z,94560.00
2023-04-20T09:52:08.836Z,94564.00
2023-04-20T09:53:08.324Z,94558.00
2023-04-20T09:54:08.536Z,94556.00
2023-04-20T09:55:08.152Z,94558.00
2023-04-20T09:56:08.136Z,94556.00
2023-04-20T09:57:08.148Z,94556.00
2023-04-20T09:58:08.148Z,94554.00
2023-04-20T09:59:08.243Z,94554.00
2023-04-20T10:00:08.118Z,94556.00
2023-04-20T10:01:08.111Z,94558.00
2023-04-20T10:02:08.146Z,94558.00
2023-04-20T10:03:08.197Z,94558.00
2023-04-20T10:04:08.873Z,94558.00
2023-04-20T10:05:08.070Z,94554.00
2023-04-20T10:06:08.087Z,94552.00
2023-04-20T10:07:08.318Z,94550.00
2023-04-20T10:08:09.816Z,94546.00
2023-04-20T10:09:08.329Z,94546.00
2023-04-20T10:10:08.305Z,94546.00
2023-04-20T10:11:08.032Z,94544.00
2023-04-20T10:12:08.038Z,94542.00
2023-04-20T10:13:08.012Z,94542.00
2023-04-20T10:14:08.012Z,94540.00
2023-04-20T10:15:08.345Z,94542.00
2023-04-20T10:16:07.998Z,94542.00
2023-04-20T10:17:08.051Z,94544.00
2023-04-20T10:18:08.091Z,94546.00
2023-04-20T10:19:09.276Z,94544.00
2023-04-20T10:20:08.314Z,94544.00
2023-04-20T10:21:07.965Z,94540.00
2023-04-20T10:22:07.974Z,94540.00
2023-04-20T10:23:07.968Z,94538.00
2023-04-20T10:24:07.949Z,94533.00
2023-04-20T10:25:08.311Z,94535.00
2023-04-20T10:26:07.949Z,94533.00
2023-04-20T10:27:07.924Z,94533.00
2023-04-20T10:28:07.916Z,94529.00
2023-04-20T10:29:07.927Z,94531.00
2023-04-20T10:30:08.323Z,94533.00
2023-04-20T10:31:08.646Z,94533.00
2023-04-20T10:32:07.905Z,94531.00
2023-04-20T10:33:08.164Z,94529.00
2023-04-20T10:34:08.263Z,94527.00
2023-04-20T10:35:08.243Z,94527.00
2023-04-20T10:36:08.327Z,94523.00
2023-04-20T10:37:07.871Z,94521.00
2023-04-20T10:38:07.860Z,94521.00
2023-04-20T10:39:07.864Z,94519.00
2023-04-20T10:40:08.320Z,94515.00
2023-04-20T10:41:07.866Z,94515.00
2023-04-20T10:42:08.364Z,94513.00
2023-04-20T10:43:08.306Z,94513.00
2023-04-20T10:44:08.448Z,94511.00
2023-04-20T10:45:08.359Z,94513.00
2023-04-20T10:46:08.880Z,94509.00
2023-04-20T10:47:08.063Z,94507.00
2023-04-20T10:48:07.906Z,94509.00
2023-04-20T10:49:07.848Z,94507.00
2023-04-20T10:50:08.335Z,94505.00
2023-04-20T10:51:07.830Z,94505.00
2023-04-20T10:52:07.838Z,94505.00
2023-04-20T10:53:07.822Z,94503.00
2023-04-20T10:54:08.157Z,94503.00
2023-04-20T10:55:07.827Z,94503.00
2023-04-20T10:56:07.849Z,94503.00
2023-04-20T10:57:07.825Z,94499.00
2023-04-20T10:58:07.816Z,94497.00
2023-04-20T10:59:07.827Z,94495.00
2023-04-20T11:00:07.829Z,94491.00
2023-04-20T11:01:07.805Z,94488.00
2023-04-20T11:02:07.943Z,94486.00
2023-04-20T11:03:07.967Z,94486.00
2023-04-20T11:04:07.793Z,94488.00
2023-04-20T11:05:07.860Z,94486.00
2023-04-20T11:06:07.796Z,94486.00
2023-04-20T11:07:07.811Z,94484.00
2023-04-20T11:08:07.796Z,94480.00
2023-04-20T11:09:07.803Z,94482.00
2023-04-20T11:10:07.835Z,94480.00
2023-04-20T11:11:08.709Z,94480.00
2023-04-20T11:12:08.356Z,94480.00
2023-04-20T11:13:07.783Z,94480.00
2023-04-20T11:14:07.775Z,94482.00
2023-04-20T11:15:07.832Z,94480.00
2023-04-20T11:16:07.804Z,94478.00
2023-04-20T11:17:07.812Z,94480.00
2023-04-20T11:18:07.787Z,94478.00
2023-04-20T11:19:07.830Z,94480.00
2023-04-20T11:20:08.341Z,94478.00
2023-04-20T11:21:07.736Z,94480.00
2023-04-20T11:22:07.845Z,94480.00
2023-04-20T11:23:07.721Z,94480.00
2023-04-20T11:24:07.722Z,94478.00
2023-04-20T11:25:07.702Z,94476.00
2023-04-20T11:26:07.705Z,94474.00
2023-04-20T11:27:08.249Z,94474.00
2023-04-20T11:28:07.806Z,94474.00
2023-04-20T11:29:07.734Z,94470.00
2023-04-20T11:30:07.689Z,94472.00
2023-04-20T11:31:07.931Z,94468.00
2023-04-20T11:32:07.935Z,94468.00
2023-04-20T11:33:07.876Z,94472.00
2023-04-20T11:34:07.677Z,94470.00
2023-04-20T11:35:07.981Z,94468.00
2023-04-20T11:36:07.668Z,94472.00
2023-04-20T11:37:07.859Z,94470.00
2023-04-20T11:38:07.740Z,94470.00
2023-04-20T11:39:07.644Z,94468.00
2023-04-20T11:40:07.641Z,94466.00
2023-04-20T11:41:07.635Z,94466.00
2023-04-20T11:42:07.620Z,94466.00
2023-04-20T11:43:07.622Z,94464.00
2023-04-20T11:44:07.590Z,94462.00
2023-04-20T11:45:07.596Z,94458.00